sensor_id;sensor_type;location;lat;lon;timestamp;P1;durP1;ratioP1;P2;durP2;ratioP2
82805;SDS011;72558;51.000;-3.112;2023-09-19T14:10:13;4.9;;;0.8;;
82805;SDS011;72558;51.000;-3.112;2023-09-19T14:12:46;4.9;;;0.8;;
82805;SDS011;72558;51.000;-3.112;2023-09-19T14:15:18;4.9;;;0.8;;
82805;SDS011;72558;51.000;-3.112;2023-09-19T14:17:51;7.1;;;1.0;;
82805;SDS011;72558;51.000;-3.112;2023-09-19T14:20:24;6.0;;;0.9;;
82805;SDS011;72558;51.000;-3.112;2023-09-19T14:22:57;4.4;;;1.0;;
82805;SDS011;72558;51.000;-3.112;2023-09-19T14:25:30;4.0;;;0.7;;
82805;SDS011;72558;51.000;-3.112;2023-09-19T14:28:02;4.6;;;0.9;;
82805;SDS011;72558;51.000;-3.112;2023-09-19T14:30:36;6.5;;;0.9;;
82805;SDS011;72558;51.000;-3.112;2023-09-19T14:33:08;5.9;;;0.7;;
82805;SDS011;72558;51.000;-3.112;2023-09-19T14:35:41;4.0;;;0.7;;
82805;SDS011;72558;51.000;-3.112;2023-09-19T14:38:14;4.0;;;0.6;;
82805;SDS011;72558;51.000;-3.112;2023-09-19T14:40:47;3.6;;;0.6;;
82805;SDS011;72558;51.000;-3.112;2023-09-19T14:43:19;3.7;;;0.5;;
82805;SDS011;72558;51.000;-3.112;2023-09-19T14:45:52;4.6;;;1.0;;
82805;SDS011;72558;51.000;-3.112;2023-09-19T14:48:25;4.4;;;0.8;;
82805;SDS011;72558;51.000;-3.112;2023-09-19T14:50:58;3.3;;;0.5;;
82805;SDS011;72558;51.000;-3.112;2023-09-19T14:53:34;6.4;;;1.0;;
82805;SDS011;72558;51.000;-3.112;2023-09-19T14:56:07;2.9;;;0.6;;
82805;SDS011;72558;51.000;-3.112;2023-09-19T14:58:40;3.8;;;0.7;;
82805;SDS011;72558;51.000;-3.112;2023-09-19T15:01:14;3.7;;;0.8;;
82805;SDS011;72558;51.000;-3.112;2023-09-19T15:03:47;3.2;;;0.7;;
82805;SDS011;72558;51.000;-3.112;2023-09-19T15:06:20;4.4;;;1.0;;
82805;SDS011;72558;51.000;-3.112;2023-09-19T15:08:53;5.2;;;0.8;;
82805;SDS011;72558;51.000;-3.112;2023-09-19T15:11:25;4.8;;;0.9;;
82805;SDS011;72558;51.000;-3.112;2023-09-19T15:13:58;5.1;;;1.1;;
82805;SDS011;72558;51.000;-3.112;2023-09-19T15:16:31;7.3;;;1.5;;
82805;SDS011;72558;51.000;-3.112;2023-09-19T15:19:05;6.9;;;1.6;;
82805;SDS011;72558;51.000;-3.112;2023-09-19T15:21:37;7.5;;;1.3;;
82805;SDS011;72558;51.000;-3.112;2023-09-19T15:24:10;5.8;;;1.4;;
82805;SDS011;72558;51.000;-3.112;2023-09-19T15:26:43;6.0;;;1.2;;
82805;SDS011;72558;51.000;-3.112;2023-09-19T15:29:16;6.6;;;1.1;;
82805;SDS011;72558;51.000;-3.112;2023-09-19T15:31:48;6.7;;;1.7;;
82805;SDS011;72558;51.000;-3.112;2023-09-19T15:34:21;6.8;;;1.6;;
82805;SDS011;72558;51.000;-3.112;2023-09-19T15:36:54;8.2;;;1.8;;
82805;SDS011;72558;51.000;-3.112;2023-09-19T15:39:27;6.9;;;1.8;;
82805;SDS011;72558;51.000;-3.112;2023-09-19T15:42:02;5.7;;;1.1;;
82805;SDS011;72558;51.000;-3.112;2023-09-19T15:44:35;5.1;;;0.9;;
82805;SDS011;72558;51.000;-3.112;2023-09-19T15:47:08;6.7;;;1.1;;
82805;SDS011;72558;51.000;-3.112;2023-09-19T15:49:41;6.1;;;1.5;;
82805;SDS011;72558;51.000;-3.112;2023-09-19T15:52:13;5.0;;;1.1;;
82805;SDS011;72558;51.000;-3.112;2023-09-19T15:54:49;6.1;;;1.3;;
82805;SDS011;72558;51.000;-3.112;2023-09-19T15:57:21;5.1;;;1.5;;
82805;SDS011;72558;51.000;-3.112;2023-09-19T15:59:54;8.1;;;1.1;;
82805;SDS011;72558;51.000;-3.112;2023-09-19T16:02:27;4.3;;;0.7;;
82805;SDS011;72558;51.000;-3.112;2023-09-19T16:05:00;5.7;;;0.7;;
82805;SDS011;72558;51.000;-3.112;2023-09-19T16:07:33;5.4;;;0.6;;
82805;SDS011;72558;51.000;-3.112;2023-09-19T16:10:06;4.9;;;0.8;;
82805;SDS011;72558;51.000;-3.112;2023-09-19T16:12:39;4.0;;;0.7;;
82805;SDS011;72558;51.000;-3.112;2023-09-19T16:15:12;5.5;;;0.8;;
82805;SDS011;72558;51.000;-3.112;2023-09-19T16:17:45;4.6;;;0.7;;
82805;SDS011;72558;51.000;-3.112;2023-09-19T16:20:18;5.3;;;0.7;;
82805;SDS011;72558;51.000;-3.112;2023-09-19T16:22:51;3.8;;;0.6;;
82805;SDS011;72558;51.000;-3.112;2023-09-19T16:25:24;5.6;;;0.8;;
82805;SDS011;72558;51.000;-3.112;2023-09-19T16:27:56;7.0;;;1.0;;
82805;SDS011;72558;51.000;-3.112;2023-09-19T16:30:29;5.8;;;1.0;;
82805;SDS011;72558;51.000;-3.112;2023-09-19T16:33:04;4.0;;;0.8;;
82805;SDS011;72558;51.000;-3.112;2023-09-19T16:35:37;4.5;;;1.0;;
82805;SDS011;72558;51.000;-3.112;2023-09-19T16:38:10;4.7;;;0.9;;
82805;SDS011;72558;51.000;-3.112;2023-09-19T16:40:42;5.2;;;0.8;;
82805;SDS011;72558;51.000;-3.112;2023-09-19T16:43:23;4.4;;;1.2;;
82805;SDS011;72558;51.000;-3.112;2023-09-19T16:45:56;3.7;;;0.8;;
82805;SDS011;72558;51.000;-3.112;2023-09-19T16:48:30;4.0;;;0.6;;
82805;SDS011;72558;51.000;-3.112;2023-09-19T16:51:03;4.6;;;0.8;;
82805;SDS011;72558;51.000;-3.112;2023-09-19T16:53:37;5.1;;;1.1;;
82805;SDS011;72558;51.000;-3.112;2023-09-19T16:56:10;4.0;;;0.7;;
82805;SDS011;72558;51.000;-3.112;2023-09-19T16:58:44;4.7;;;0.9;;
82805;SDS011;72558;51.000;-3.112;2023-09-19T17:01:18;6.2;;;0.6;;
82805;SDS011;72558;51.000;-3.112;2023-09-19T17:03:51;6.4;;;1.0;;
82805;SDS011;72558;51.000;-3.112;2023-09-19T17:06:24;4.4;;;0.7;;
82805;SDS011;72558;51.000;-3.112;2023-09-19T17:08:57;3.8;;;0.6;;
82805;SDS011;72558;51.000;-3.112;2023-09-19T17:11:30;5.6;;;0.6;;
82805;SDS011;72558;51.000;-3.112;2023-09-19T17:14:03;4.6;;;0.7;;
82805;SDS011;72558;51.000;-3.112;2023-09-19T17:16:36;5.3;;;0.9;;
82805;SDS011;72558;51.000;-3.112;2023-09-19T17:19:08;4.5;;;0.7;;
82805;SDS011;72558;51.000;-3.112;2023-09-19T17:21:41;6.2;;;0.7;;
82805;SDS011;72558;51.000;-3.112;2023-09-19T17:24:14;4.4;;;0.5;;
82805;SDS011;72558;51.000;-3.112;2023-09-19T17:26:47;4.8;;;0.9;;
82805;SDS011;72558;51.000;-3.112;2023-09-19T17:29:19;5.8;;;0.6;;
82805;SDS011;72558;51.000;-3.112;2023-09-19T17:31:52;4.8;;;0.8;;
82805;SDS011;72558;51.000;-3.112;2023-09-19T17:34:25;8.1;;;0.9;;
82805;SDS011;72558;51.000;-3.112;2023-09-19T17:36:58;4.8;;;0.7;;
82805;SDS011;72558;51.000;-3.112;2023-09-19T17:39:30;5.9;;;1.0;;
82805;SDS011;72558;51.000;-3.112;2023-09-19T17:42:03;5.2;;;0.6;;
82805;SDS011;72558;51.000;-3.112;2023-09-19T17:44:36;7.7;;;0.8;;
82805;SDS011;72558;51.000;-3.112;2023-09-19T17:47:09;6.2;;;0.6;;
82805;SDS011;72558;51.000;-3.112;2023-09-19T17:49:42;3.6;;;0.9;;
82805;SDS011;72558;51.000;-3.112;2023-09-19T17:52:14;7.3;;;0.9;;
82805;SDS011;72558;51.000;-3.112;2023-09-19T17:54:47;5.1;;;0.8;;
82805;SDS011;72558;51.000;-3.112;2023-09-19T17:57:20;3.9;;;0.6;;
82805;SDS011;72558;51.000;-3.112;2023-09-19T17:59:53;4.7;;;0.8;;
82805;SDS011;72558;51.000;-3.112;2023-09-19T18:02:25;4.0;;;0.6;;
82805;SDS011;72558;51.000;-3.112;2023-09-19T18:04:58;4.3;;;0.6;;
82805;SDS011;72558;51.000;-3.112;2023-09-19T18:07:31;4.4;;;0.8;;
82805;SDS011;72558;51.000;-3.112;2023-09-19T18:10:04;5.1;;;0.7;;
82805;SDS011;72558;51.000;-3.112;2023-09-19T18:12:37;2.9;;;0.4;;
82805;SDS011;72558;51.000;-3.112;2023-09-19T18:15:10;5.4;;;0.8;;
82805;SDS011;72558;51.000;-3.112;2023-09-19T18:17:43;5.8;;;0.7;;
82805;SDS011;72558;51.000;-3.112;2023-09-19T18:20:15;4.5;;;0.7;;
82805;SDS011;72558;51.000;-3.112;2023-09-19T18:22:48;4.5;;;1.1;;
82805;SDS011;72558;51.000;-3.112;2023-09-19T18:25:21;4.6;;;0.6;;
82805;SDS011;72558;51.000;-3.112;2023-09-19T18:27:54;3.2;;;0.5;;
82805;SDS011;72558;51.000;-3.112;2023-09-19T18:30:26;5.4;;;0.6;;
82805;SDS011;72558;51.000;-3.112;2023-09-19T18:32:59;5.0;;;0.8;;
82805;SDS011;72558;51.000;-3.112;2023-09-19T18:35:32;5.2;;;0.6;;
82805;SDS011;72558;51.000;-3.112;2023-09-19T18:38:06;4.6;;;0.7;;
82805;SDS011;72558;51.000;-3.112;2023-09-19T18:40:38;3.7;;;0.6;;
82805;SDS011;72558;51.000;-3.112;2023-09-19T18:43:14;5.2;;;0.8;;
82805;SDS011;72558;51.000;-3.112;2023-09-19T18:45:47;5.4;;;1.4;;
82805;SDS011;72558;51.000;-3.112;2023-09-19T18:48:26;4.4;;;0.7;;
82805;SDS011;72558;51.000;-3.112;2023-09-19T18:50:59;4.2;;;1.0;;
82805;SDS011;72558;51.000;-3.112;2023-09-19T18:53:36;4.1;;;0.6;;
82805;SDS011;72558;51.000;-3.112;2023-09-19T18:56:09;4.6;;;0.7;;
82805;SDS011;72558;51.000;-3.112;2023-09-19T18:58:42;4.0;;;0.5;;
82805;SDS011;72558;51.000;-3.112;2023-09-19T19:01:16;3.9;;;0.6;;
82805;SDS011;72558;51.000;-3.112;2023-09-19T19:03:48;4.3;;;0.5;;
82805;SDS011;72558;51.000;-3.112;2023-09-19T19:06:23;7.2;;;0.7;;
82805;SDS011;72558;51.000;-3.112;2023-09-19T19:08:56;2.7;;;0.5;;
82805;SDS011;72558;51.000;-3.112;2023-09-19T19:11:29;3.7;;;0.4;;
82805;SDS011;72558;51.000;-3.112;2023-09-19T19:14:02;1.8;;;0.5;;
82805;SDS011;72558;51.000;-3.112;2023-09-19T19:16:34;3.3;;;0.4;;
82805;SDS011;72558;51.000;-3.112;2023-09-19T19:19:07;1.4;;;0.5;;
82805;SDS011;72558;51.000;-3.112;2023-09-19T19:21:40;2.3;;;0.6;;
82805;SDS011;72558;51.000;-3.112;2023-09-19T19:24:13;2.8;;;0.3;;
82805;SDS011;72558;51.000;-3.112;2023-09-19T19:26:46;2.7;;;0.4;;
82805;SDS011;72558;51.000;-3.112;2023-09-19T19:29:18;3.8;;;0.9;;
82805;SDS011;72558;51.000;-3.112;2023-09-19T19:31:51;4.2;;;0.5;;
82805;SDS011;72558;51.000;-3.112;2023-09-19T19:34:24;3.1;;;0.4;;
82805;SDS011;72558;51.000;-3.112;2023-09-19T19:36:57;3.5;;;0.5;;
82805;SDS011;72558;51.000;-3.112;2023-09-19T19:39:30;2.1;;;0.7;;
82805;SDS011;72558;51.000;-3.112;2023-09-19T19:42:02;3.9;;;0.4;;
82805;SDS011;72558;51.000;-3.112;2023-09-19T19:44:35;3.3;;;0.5;;
82805;SDS011;72558;51.000;-3.112;2023-09-19T19:47:08;4.9;;;0.5;;
82805;SDS011;72558;51.000;-3.112;2023-09-19T19:49:41;5.2;;;0.4;;
82805;SDS011;72558;51.000;-3.112;2023-09-19T19:52:14;3.7;;;0.3;;
82805;SDS011;72558;51.000;-3.112;2023-09-19T19:54:47;5.4;;;0.7;;
82805;SDS011;72558;51.000;-3.112;2023-09-19T19:57:20;3.2;;;0.7;;
82805;SDS011;72558;51.000;-3.112;2023-09-19T19:59:53;6.3;;;0.7;;
82805;SDS011;72558;51.000;-3.112;2023-09-19T20:02:26;4.0;;;0.6;;
82805;SDS011;72558;51.000;-3.112;2023-09-19T20:04:58;3.6;;;0.6;;
82805;SDS011;72558;51.000;-3.112;2023-09-19T20:07:32;4.8;;;0.9;;
82805;SDS011;72558;51.000;-3.112;2023-09-19T20:10:05;4.7;;;0.7;;
82805;SDS011;72558;51.000;-3.112;2023-09-19T20:12:38;8.1;;;1.2;;
82805;SDS011;72558;51.000;-3.112;2023-09-19T20:15:11;7.1;;;0.7;;
82805;SDS011;72558;51.000;-3.112;2023-09-19T20:17:44;5.3;;;0.9;;
82805;SDS011;72558;51.000;-3.112;2023-09-19T20:20:16;4.9;;;0.8;;
82805;SDS011;72558;51.000;-3.112;2023-09-19T20:22:49;6.7;;;0.8;;
82805;SDS011;72558;51.000;-3.112;2023-09-19T20:25:22;5.8;;;0.7;;
82805;SDS011;72558;51.000;-3.112;2023-09-19T20:27:55;6.5;;;1.5;;
82805;SDS011;72558;51.000;-3.112;2023-09-19T20:30:28;6.2;;;1.1;;
82805;SDS011;72558;51.000;-3.112;2023-09-19T20:33:00;6.9;;;1.1;;
82805;SDS011;72558;51.000;-3.112;2023-09-19T20:35:33;6.3;;;1.0;;
82805;SDS011;72558;51.000;-3.112;2023-09-19T20:38:07;6.3;;;1.2;;
82805;SDS011;72558;51.000;-3.112;2023-09-19T20:40:40;5.8;;;0.8;;
82805;SDS011;72558;51.000;-3.112;2023-09-19T20:43:13;6.9;;;1.0;;
82805;SDS011;72558;51.000;-3.112;2023-09-19T20:45:45;7.9;;;1.1;;
82805;SDS011;72558;51.000;-3.112;2023-09-19T20:48:18;6.9;;;1.1;;
82805;SDS011;72558;51.000;-3.112;2023-09-19T20:50:51;7.6;;;1.2;;
82805;SDS011;72558;51.000;-3.112;2023-09-19T20:53:24;6.6;;;1.4;;
82805;SDS011;72558;51.000;-3.112;2023-09-19T20:55:57;5.9;;;1.0;;
82805;SDS011;72558;51.000;-3.112;2023-09-19T20:58:31;4.8;;;0.9;;
82805;SDS011;72558;51.000;-3.112;2023-09-19T21:01:04;5.6;;;1.0;;
82805;SDS011;72558;51.000;-3.112;2023-09-19T21:03:37;9.7;;;1.5;;
82805;SDS011;72558;51.000;-3.112;2023-09-19T21:06:10;10.2;;;1.6;;
82805;SDS011;72558;51.000;-3.112;2023-09-19T21:08:43;5.8;;;1.3;;
82805;SDS011;72558;51.000;-3.112;2023-09-19T21:11:16;8.9;;;1.6;;
82805;SDS011;72558;51.000;-3.112;2023-09-19T21:13:49;8.7;;;1.4;;
82805;SDS011;72558;51.000;-3.112;2023-09-19T21:16:22;8.2;;;1.4;;
82805;SDS011;72558;51.000;-3.112;2023-09-19T21:18:54;10.0;;;2.1;;
82805;SDS011;72558;51.000;-3.112;2023-09-19T21:21:27;8.9;;;1.5;;
82805;SDS011;72558;51.000;-3.112;2023-09-19T21:24:00;11.5;;;2.0;;
82805;SDS011;72558;51.000;-3.112;2023-09-19T21:26:33;11.0;;;1.8;;
82805;SDS011;72558;51.000;-3.112;2023-09-19T21:29:06;8.4;;;1.6;;
82805;SDS011;72558;51.000;-3.112;2023-09-19T21:31:39;8.8;;;1.6;;
82805;SDS011;72558;51.000;-3.112;2023-09-19T21:34:12;10.3;;;1.6;;
82805;SDS011;72558;51.000;-3.112;2023-09-19T21:36:44;10.8;;;1.9;;
82805;SDS011;72558;51.000;-3.112;2023-09-19T21:39:17;8.6;;;1.6;;
82805;SDS011;72558;51.000;-3.112;2023-09-19T21:41:50;9.4;;;1.8;;
82805;SDS011;72558;51.000;-3.112;2023-09-19T21:44:23;9.4;;;1.5;;
82805;SDS011;72558;51.000;-3.112;2023-09-19T21:46:55;8.8;;;1.6;;
82805;SDS011;72558;51.000;-3.112;2023-09-19T21:49:28;9.2;;;1.7;;
82805;SDS011;72558;51.000;-3.112;2023-09-19T21:52:01;10.4;;;1.4;;
82805;SDS011;72558;51.000;-3.112;2023-09-19T21:54:34;8.6;;;1.5;;
82805;SDS011;72558;51.000;-3.112;2023-09-19T21:57:07;7.6;;;1.3;;
82805;SDS011;72558;51.000;-3.112;2023-09-19T21:59:39;9.6;;;1.8;;
82805;SDS011;72558;51.000;-3.112;2023-09-19T22:02:12;7.6;;;1.3;;
82805;SDS011;72558;51.000;-3.112;2023-09-19T22:04:45;8.8;;;1.4;;
82805;SDS011;72558;51.000;-3.112;2023-09-19T22:07:19;8.8;;;1.5;;
82805;SDS011;72558;51.000;-3.112;2023-09-19T22:09:52;10.6;;;1.8;;
82805;SDS011;72558;51.000;-3.112;2023-09-19T22:12:25;8.4;;;1.8;;
82805;SDS011;72558;51.000;-3.112;2023-09-19T22:14:58;9.8;;;2.1;;
82805;SDS011;72558;51.000;-3.112;2023-09-19T22:17:30;10.0;;;1.6;;
82805;SDS011;72558;51.000;-3.112;2023-09-19T22:20:03;12.7;;;1.9;;
82805;SDS011;72558;51.000;-3.112;2023-09-19T22:22:37;9.7;;;1.8;;
82805;SDS011;72558;51.000;-3.112;2023-09-19T22:25:10;11.1;;;1.7;;
82805;SDS011;72558;51.000;-3.112;2023-09-19T22:27:42;8.3;;;1.5;;
82805;SDS011;72558;51.000;-3.112;2023-09-19T22:30:15;9.9;;;1.6;;
82805;SDS011;72558;51.000;-3.112;2023-09-19T22:32:48;10.9;;;1.8;;
82805;SDS011;72558;51.000;-3.112;2023-09-19T22:35:21;9.1;;;1.8;;
82805;SDS011;72558;51.000;-3.112;2023-09-19T22:37:54;8.5;;;1.5;;
82805;SDS011;72558;51.000;-3.112;2023-09-19T22:40:27;8.1;;;1.3;;
82805;SDS011;72558;51.000;-3.112;2023-09-19T22:43:00;8.6;;;1.6;;
82805;SDS011;72558;51.000;-3.112;2023-09-19T22:45:33;9.6;;;1.9;;
82805;SDS011;72558;51.000;-3.112;2023-09-19T22:48:05;8.7;;;1.7;;
82805;SDS011;72558;51.000;-3.112;2023-09-19T22:50:38;9.7;;;1.9;;
82805;SDS011;72558;51.000;-3.112;2023-09-19T22:53:11;10.3;;;1.6;;
82805;SDS011;72558;51.000;-3.112;2023-09-19T22:55:44;9.5;;;1.9;;
82805;SDS011;72558;51.000;-3.112;2023-09-19T22:58:17;11.2;;;2.3;;
82805;SDS011;72558;51.000;-3.112;2023-09-19T23:00:50;12.0;;;2.3;;
82805;SDS011;72558;51.000;-3.112;2023-09-19T23:03:23;10.2;;;2.1;;
82805;SDS011;72558;51.000;-3.112;2023-09-19T23:05:56;10.3;;;1.9;;
82805;SDS011;72558;51.000;-3.112;2023-09-19T23:08:28;10.9;;;3.0;;
82805;SDS011;72558;51.000;-3.112;2023-09-19T23:11:01;10.0;;;2.2;;
82805;SDS011;72558;51.000;-3.112;2023-09-19T23:13:34;9.7;;;2.1;;
82805;SDS011;72558;51.000;-3.112;2023-09-19T23:16:07;8.3;;;2.2;;
82805;SDS011;72558;51.000;-3.112;2023-09-19T23:18:39;12.0;;;2.4;;
82805;SDS011;72558;51.000;-3.112;2023-09-19T23:21:12;10.8;;;2.1;;
82805;SDS011;72558;51.000;-3.112;2023-09-19T23:23:45;13.0;;;2.1;;
82805;SDS011;72558;51.000;-3.112;2023-09-19T23:26:17;12.3;;;2.2;;
82805;SDS011;72558;51.000;-3.112;2023-09-19T23:28:50;12.5;;;2.5;;
82805;SDS011;72558;51.000;-3.112;2023-09-19T23:31:23;13.3;;;2.3;;
82805;SDS011;72558;51.000;-3.112;2023-09-19T23:33:56;11.2;;;2.1;;
82805;SDS011;72558;51.000;-3.112;2023-09-19T23:36:29;11.3;;;2.4;;
82805;SDS011;72558;51.000;-3.112;2023-09-19T23:39:02;9.1;;;2.1;;
82805;SDS011;72558;51.000;-3.112;2023-09-19T23:41:35;12.1;;;2.2;;
82805;SDS011;72558;51.000;-3.112;2023-09-19T23:44:07;10.8;;;2.2;;
82805;SDS011;72558;51.000;-3.112;2023-09-19T23:46:40;12.1;;;2.3;;
82805;SDS011;72558;51.000;-3.112;2023-09-19T23:49:13;10.3;;;2.1;;
82805;SDS011;72558;51.000;-3.112;2023-09-19T23:51:46;11.4;;;2.1;;
82805;SDS011;72558;51.000;-3.112;2023-09-19T23:54:19;13.2;;;2.5;;
82805;SDS011;72558;51.000;-3.112;2023-09-19T23:56:52;11.5;;;2.2;;
82805;SDS011;72558;51.000;-3.112;2023-09-19T23:59:25;10.0;;;2.2;;
